createdAt,value
2023-01-02T00:00:39.251Z,9.457064
2023-01-02T00:01:39.224Z,9.457095
2023-01-02T00:02:39.318Z,9.457091
2023-01-02T00:03:39.266Z,9.457248
2023-01-02T00:04:39.211Z,9.457137
2023-01-02T00:05:39.192Z,9.457089
2023-01-02T00:06:39.183Z,9.457237
2023-01-02T00:07:39.196Z,9.457203
2023-01-02T00:08:39.172Z,9.457119
2023-01-02T00:09:39.145Z,9.457110
2023-01-02T00:10:39.233Z,9.457105
2023-01-02T00:11:39.140Z,9.457083
2023-01-02T00:12:39.147Z,9.457044
2023-01-02T00:13:39.104Z,9.457066
2023-01-02T00:14:39.106Z,9.457273
2023-01-02T00:15:39.096Z,9.457115
2023-01-02T00:16:39.130Z,9.457190
2023-01-02T00:17:39.080Z,9.457345
2023-01-02T00:18:39.058Z,9.457270
2023-01-02T00:19:39.048Z,9.457269
2023-01-02T00:20:39.038Z,9.457199
2023-01-02T00:21:40.050Z,9.457170
2023-01-02T00:22:39.043Z,9.457175
2023-01-02T00:23:39.014Z,9.457163
2023-01-02T00:24:39.008Z,9.457166
2023-01-02T00:25:38.984Z,9.457170
2023-01-02T00:26:38.974Z,9.457201
2023-01-02T00:27:38.990Z,9.457187
2023-01-02T00:28:38.956Z,9.456888
2023-01-02T00:29:38.952Z,9.457221
2023-01-02T00:30:39.069Z,9.457195
2023-01-02T00:31:38.952Z,9.457226
2023-01-02T00:32:38.931Z,9.457285
2023-01-02T00:33:38.911Z,9.457198
2023-01-02T00:34:38.904Z,9.457135
2023-01-02T00:35:38.888Z,9.457253
2023-01-02T00:36:38.879Z,9.457238
2023-01-02T00:37:38.904Z,9.457323
2023-01-02T00:38:38.863Z,9.457278
2023-01-02T00:39:38.847Z,9.457121
2023-01-02T00:40:38.843Z,9.457136
2023-01-02T00:41:38.825Z,9.457178
2023-01-02T00:42:38.842Z,9.457277
2023-01-02T00:43:38.808Z,9.457494
2023-01-02T00:44:38.817Z,9.457351
2023-01-02T00:45:38.778Z,9.457250
2023-01-02T00:46:38.839Z,9.457282
2023-01-02T00:47:38.802Z,9.457245
2023-01-02T00:48:38.762Z,9.457191
2023-01-02T00:49:38.752Z,9.457278
2023-01-02T00:50:38.735Z,9.457231
2023-01-02T00:51:38.733Z,9.457144
2023-01-02T00:52:38.753Z,9.457132
2023-01-02T00:53:38.705Z,9.457216
2023-01-02T00:54:38.701Z,9.457340
2023-01-02T00:55:38.689Z,9.457284
2023-01-02T00:56:38.693Z,9.457302
2023-01-02T00:57:38.695Z,9.457263
2023-01-02T00:58:38.658Z,9.457216
2023-01-02T00:59:38.649Z,9.457179
2023-01-02T01:00:38.671Z,9.457179
2023-01-02T01:01:38.723Z,9.457219
2023-01-02T01:02:38.775Z,9.457160
2023-01-02T01:03:38.607Z,9.457168
2023-01-02T01:04:38.590Z,9.457152
2023-01-02T01:05:38.591Z,9.457193
2023-01-02T01:06:38.575Z,9.457220
2023-01-02T01:07:38.586Z,9.457200
2023-01-02T01:08:38.556Z,9.457207
2023-01-02T01:09:38.547Z,9.457253
2023-01-02T01:10:38.542Z,9.457322
2023-01-02T01:11:38.529Z,9.457259
2023-01-02T01:12:38.531Z,9.457217
2023-01-02T01:13:38.506Z,9.457218
2023-01-02T01:14:38.498Z,9.457472
2023-01-02T01:15:38.485Z,9.457499
2023-01-02T01:16:38.506Z,9.457367
2023-01-02T01:17:38.486Z,9.457307
2023-01-02T01:18:38.457Z,9.457260
2023-01-02T01:19:38.451Z,9.457240
2023-01-02T01:20:38.432Z,9.457243
2023-01-02T01:21:38.425Z,9.457249
2023-01-02T01:22:38.467Z,9.457273
2023-01-02T01:23:38.411Z,9.457234
2023-01-02T01:24:38.392Z,9.457089
2023-01-02T01:25:38.396Z,9.457103
2023-01-02T01:26:38.376Z,9.457263
2023-01-02T01:27:38.385Z,9.457264
2023-01-02T01:28:38.350Z,9.457293
2023-01-02T01:29:38.336Z,9.457357
2023-01-02T01:30:38.329Z,9.457279
2023-01-02T01:31:38.328Z,9.457224
2023-01-02T01:32:38.317Z,9.457282
2023-01-02T01:33:38.318Z,9.457297
2023-01-02T01:34:38.290Z,9.457135
2023-01-02T01:35:38.273Z,9.457100
2023-01-02T01:36:38.260Z,9.457267
2023-01-02T01:37:38.291Z,9.457362
2023-01-02T01:38:38.271Z,9.457264
2023-01-02T01:39:38.234Z,9.457191
2023-01-02T01:40:38.226Z,9.457038
2023-01-02T01:41:38.221Z,9.457254
2023-01-02T01:42:38.214Z,9.457088
2023-01-02T01:43:38.212Z,9.457203
2023-01-02T01:44:38.174Z,9.457189
2023-01-02T01:45:38.187Z,9.457167
2023-01-02T01:46:38.164Z,9.457176
2023-01-02T01:47:38.170Z,9.457251
2023-01-02T01:48:38.158Z,9.457212
2023-01-02T01:49:38.133Z,9.457188
2023-01-02T01:50:38.122Z,9.457191
2023-01-02T01:51:38.111Z,9.457185
2023-01-02T01:52:38.091Z,9.457167
2023-01-02T01:53:38.109Z,9.457024
2023-01-02T01:54:38.079Z,9.457151
2023-01-02T01:55:38.065Z,9.457088
2023-01-02T01:56:38.050Z,9.457026
2023-01-02T01:57:38.044Z,9.457141
2023-01-02T01:58:38.063Z,9.457182
2023-01-02T01:59:38.018Z,9.457041
2023-01-02T02:00:38.017Z,9.457136
2023-01-02T02:01:38.114Z,9.457130
2023-01-02T02:02:38.118Z,9.457174
2023-01-02T02:03:38.010Z,9.457077
2023-01-02T02:04:37.978Z,9.457072
2023-01-02T02:05:37.970Z,9.457349
2023-01-02T02:06:37.954Z,9.457082
2023-01-02T02:07:37.947Z,9.457130
2023-01-02T02:08:37.950Z,9.457137
2023-01-02T02:09:37.929Z,9.457186
2023-01-02T02:10:37.921Z,9.457190
2023-01-02T02:11:37.895Z,9.457126
2023-01-02T02:12:37.895Z,9.457004
2023-01-02T02:13:37.908Z,9.457036
2023-01-02T02:14:37.912Z,9.457044
2023-01-02T02:15:37.856Z,9.456940
2023-01-02T02:16:37.863Z,9.456981
2023-01-02T02:17:37.846Z,9.457101
2023-01-02T02:18:37.849Z,9.457003
2023-01-02T02:19:37.832Z,9.457067
2023-01-02T02:20:37.813Z,9.456959
2023-01-02T02:21:37.798Z,9.457036
2023-01-02T02:22:37.801Z,9.457043
2023-01-02T02:23:37.806Z,9.457132
2023-01-02T02:24:37.777Z,9.457046
2023-01-02T02:25:37.769Z,9.456979
2023-01-02T02:26:37.750Z,9.457035
2023-01-02T02:27:37.748Z,9.457059
2023-01-02T02:28:37.752Z,9.457130
2023-01-02T02:29:37.720Z,9.457074
2023-01-02T02:30:37.718Z,9.457082
2023-01-02T02:31:37.739Z,9.457135
2023-01-02T02:32:37.689Z,9.457211
2023-01-02T02:33:37.707Z,9.457172
2023-01-02T02:34:37.675Z,9.457200
2023-01-02T02:35:37.660Z,9.457140
2023-01-02T02:36:37.651Z,9.457310
2023-01-02T02:37:37.656Z,9.457393
2023-01-02T02:38:37.658Z,9.457269
2023-01-02T02:39:37.626Z,9.457216
2023-01-02T02:40:37.606Z,9.457210
2023-01-02T02:41:37.609Z,9.457205
2023-01-02T02:42:37.595Z,9.457275
2023-01-02T02:43:37.595Z,9.457182
2023-01-02T02:44:37.580Z,9.457136
2023-01-02T02:45:37.594Z,9.457107
2023-01-02T02:46:38.551Z,9.457179
2023-01-02T02:47:37.531Z,9.457204
2023-01-02T02:48:41.670Z,9.457204
2023-01-02T02:49:39.532Z,9.457220
2023-01-02T02:50:37.515Z,9.457211
2023-01-02T02:51:37.492Z,9.457150
2023-01-02T02:52:37.487Z,9.457107
2023-01-02T02:53:37.500Z,9.457020
2023-01-02T02:54:37.475Z,9.457229
2023-01-02T02:55:37.459Z,9.457186
2023-01-02T02:56:37.456Z,9.457242
2023-01-02T02:57:37.450Z,9.457104
2023-01-02T02:58:37.464Z,9.456965
2023-01-02T02:59:37.420Z,9.457056
2023-01-02T03:00:37.429Z,9.457289
2023-01-02T03:01:37.464Z,9.457441
2023-01-02T03:02:37.528Z,9.457311
2023-01-02T03:03:37.388Z,9.457121
2023-01-02T03:04:37.372Z,9.457085
2023-01-02T03:05:37.369Z,9.457118
2023-01-02T03:06:37.372Z,9.457276
2023-01-02T03:07:37.335Z,9.457211
2023-01-02T03:08:37.350Z,9.457146
2023-01-02T03:09:37.317Z,9.457075
2023-01-02T03:10:37.309Z,9.457089
2023-01-02T03:11:37.288Z,9.457059
2023-01-02T03:12:37.290Z,9.457120
2023-01-02T03:13:41.750Z,9.457071
2023-01-02T03:14:39.269Z,9.457118
2023-01-02T03:15:37.257Z,9.457066
2023-01-02T03:16:37.264Z,9.457194
2023-01-02T03:17:37.242Z,9.457202
2023-01-02T03:18:37.255Z,9.457355
2023-01-02T03:19:37.218Z,9.457046
2023-01-02T03:20:37.210Z,9.457088
2023-01-02T03:21:37.193Z,9.457067
2023-01-02T03:22:37.187Z,9.457325
2023-01-02T03:23:37.214Z,9.457429
2023-01-02T03:24:37.165Z,9.457248
2023-01-02T03:25:37.161Z,9.457310
2023-01-02T03:26:37.139Z,9.457312
2023-01-02T03:27:37.134Z,9.457295
2023-01-02T03:28:37.130Z,9.457315
2023-01-02T03:29:38.111Z,9.457304
2023-01-02T03:30:37.136Z,9.457102
2023-01-02T03:31:37.085Z,9.457143
2023-01-02T03:32:37.082Z,9.457246
2023-01-02T03:33:37.096Z,9.457194
2023-01-02T03:34:37.067Z,9.457243
2023-01-02T03:35:37.044Z,9.457297
2023-01-02T03:36:37.036Z,9.456986
2023-01-02T03:37:37.031Z,9.457159
2023-01-02T03:38:37.061Z,9.457211
2023-01-02T03:39:36.999Z,9.456989
2023-01-02T03:40:37.008Z,9.457116
2023-01-02T03:41:36.990Z,9.457048
2023-01-02T03:42:36.983Z,9.457376
2023-01-02T03:43:36.992Z,9.457249
2023-01-02T03:44:36.952Z,9.456921
2023-01-02T03:45:36.942Z,9.456980
2023-01-02T03:46:36.934Z,9.456963
2023-01-02T03:47:36.926Z,9.456923
2023-01-02T03:48:36.937Z,9.457007
2023-01-02T03:49:36.909Z,9.457258
2023-01-02T03:50:36.892Z,9.457197
2023-01-02T03:51:36.881Z,9.457193
2023-01-02T03:52:37.878Z,9.457209
2023-01-02T03:53:36.890Z,9.457170
2023-01-02T03:54:36.889Z,9.457230
2023-01-02T03:55:36.866Z,9.457228
2023-01-02T03:56:36.835Z,9.457028
2023-01-02T03:57:36.834Z,9.456729
2023-01-02T03:58:36.845Z,9.456763
2023-01-02T03:59:36.806Z,9.457016
2023-01-02T04:00:36.806Z,9.457130
2023-01-02T04:01:36.912Z,9.457397
2023-01-02T04:02:36.932Z,9.456973
2023-01-02T04:03:36.832Z,9.457390
2023-01-02T04:04:36.762Z,9.457144
2023-01-02T04:05:36.755Z,9.457191
2023-01-02T04:06:36.736Z,9.457077
2023-01-02T04:07:36.736Z,9.456975
2023-01-02T04:08:36.739Z,9.456811
2023-01-02T04:09:36.705Z,9.456814
2023-01-02T04:10:36.694Z,9.456860
2023-01-02T04:11:36.687Z,9.456868
2023-01-02T04:12:36.671Z,9.457196
2023-01-02T04:13:36.703Z,9.457221
2023-01-02T04:14:36.653Z,9.457295
2023-01-02T04:15:36.678Z,9.456960
2023-01-02T04:16:36.647Z,9.457192
2023-01-02T04:17:36.632Z,9.457179
2023-01-02T04:18:40.242Z,9.457061
2023-01-02T04:19:37.630Z,9.457007
2023-01-02T04:20:36.606Z,9.456917
2023-01-02T04:21:36.621Z,9.457048
2023-01-02T04:22:36.576Z,9.457003
2023-01-02T04:23:36.611Z,9.457150
2023-01-02T04:24:36.581Z,9.457253
2023-01-02T04:25:36.547Z,9.457114
2023-01-02T04:26:36.543Z,9.457129
2023-01-02T04:27:36.530Z,9.457236
2023-01-02T04:28:36.514Z,9.457211
2023-01-02T04:29:36.537Z,9.457258
2023-01-02T04:30:36.496Z,9.457162
2023-01-02T04:31:36.502Z,9.457155
2023-01-02T04:32:36.482Z,9.457273
2023-01-02T04:33:36.470Z,9.457322
2023-01-02T04:34:36.477Z,9.457170
2023-01-02T04:35:36.446Z,9.457260
2023-01-02T04:36:36.443Z,9.457135
2023-01-02T04:37:36.440Z,9.457158
2023-01-02T04:38:36.418Z,9.457208
2023-01-02T04:39:36.446Z,9.457159
2023-01-02T04:40:36.392Z,9.457159
2023-01-02T04:41:36.401Z,9.457106
2023-01-02T04:42:36.378Z,9.457131
2023-01-02T04:43:36.368Z,9.457269
2023-01-02T04:44:36.375Z,9.457181
2023-01-02T04:45:36.346Z,9.457294
2023-01-02T04:46:36.369Z,9.457294
2023-01-02T04:47:36.320Z,9.457261
2023-01-02T04:48:36.326Z,9.457314
2023-01-02T04:49:36.330Z,9.457329
2023-01-02T04:50:36.294Z,9.457219
2023-01-02T04:51:36.298Z,9.457217
2023-01-02T04:52:37.533Z,9.457285
2023-01-02T04:53:37.264Z,9.457308
2023-01-02T04:54:36.264Z,9.457369
2023-01-02T04:55:36.240Z,9.457260
2023-01-02T04:56:36.234Z,9.457289
2023-01-02T04:57:36.299Z,9.457267
2023-01-02T04:58:36.206Z,9.457232
2023-01-02T04:59:36.216Z,9.457221
2023-01-02T05:00:36.191Z,9.457279
2023-01-02T05:01:36.221Z,9.457121
2023-01-02T05:02:36.292Z,9.457196
2023-01-02T05:03:36.186Z,9.457331
2023-01-02T05:04:36.175Z,9.457293
2023-01-02T05:05:36.137Z,9.457287
2023-01-02T05:06:36.131Z,9.457314
2023-01-02T05:07:36.107Z,9.457248
2023-01-02T05:08:36.114Z,9.457262
2023-01-02T05:09:36.123Z,9.457295
2023-01-02T05:10:36.083Z,9.457210
2023-01-02T05:11:36.084Z,9.457073
2023-01-02T05:12:36.070Z,9.457067
2023-01-02T05:13:36.175Z,9.457278
2023-01-02T05:14:36.069Z,9.457356
2023-01-02T05:15:36.087Z,9.457431
2023-01-02T05:16:36.033Z,9.457351
2023-01-02T05:17:36.033Z,9.457347
2023-01-02T05:18:36.009Z,9.457314
2023-01-02T05:19:36.016Z,9.457270
2023-01-02T05:20:35.996Z,9.457290
2023-01-02T05:21:35.983Z,9.457474
2023-01-02T05:22:35.978Z,9.457203
2023-01-02T05:23:35.964Z,9.457142
2023-01-02T05:24:35.968Z,9.457077
2023-01-02T05:25:35.968Z,9.457238
2023-01-02T05:26:35.923Z,9.457250
2023-01-02T05:27:35.929Z,9.457386
2023-01-02T05:28:38.737Z,9.457211
2023-01-02T05:29:36.924Z,9.457181
2023-01-02T05:30:35.892Z,9.457075
2023-01-02T05:31:35.926Z,9.457018
2023-01-02T05:32:35.873Z,9.457096
2023-01-02T05:33:35.872Z,9.457073
2023-01-02T05:34:35.880Z,9.456964
2023-01-02T05:35:35.843Z,9.457073
2023-01-02T05:36:35.839Z,9.457145
2023-01-02T05:37:35.827Z,9.457170
2023-01-02T05:38:35.805Z,9.457178
2023-01-02T05:39:35.827Z,9.457197
2023-01-02T05:40:35.795Z,9.457218
2023-01-02T05:41:35.797Z,9.457247
2023-01-02T05:42:35.774Z,9.457150
2023-01-02T05:43:35.770Z,9.457188
2023-01-02T05:44:35.777Z,9.457258
2023-01-02T05:45:35.740Z,9.457213
2023-01-02T05:46:35.794Z,9.457314
2023-01-02T05:47:35.730Z,9.457248
2023-01-02T05:48:35.715Z,9.457091
2023-01-02T05:49:35.741Z,9.457195
2023-01-02T05:50:35.691Z,9.457126
2023-01-02T05:51:35.684Z,9.457180
2023-01-02T05:52:38.825Z,9.457182
2023-01-02T05:53:36.655Z,9.457178
2023-01-02T05:54:35.674Z,9.457295
2023-01-02T05:55:35.645Z,9.457174
2023-01-02T05:56:35.651Z,9.457119
2023-01-02T05:57:35.614Z,9.457058
2023-01-02T05:58:35.610Z,9.457117
2023-01-02T05:59:36.433Z,9.457051
2023-01-02T06:00:36.591Z,9.457088
2023-01-02T06:01:35.759Z,9.457125
2023-01-02T06:02:35.639Z,9.457010
2023-01-02T06:03:36.640Z,9.457095
2023-01-02T06:04:35.578Z,9.457133
2023-01-02T06:05:35.548Z,9.457052
2023-01-02T06:06:35.536Z,9.457108
2023-01-02T06:07:35.525Z,9.457219
2023-01-02T06:08:35.554Z,9.457228
2023-01-02T06:09:35.575Z,9.457171
2023-01-02T06:10:35.501Z,9.457060
2023-01-02T06:11:35.479Z,9.457186
2023-01-02T06:12:36.483Z,9.457117
2023-01-02T06:13:35.475Z,9.457184
2023-01-02T06:14:35.473Z,9.456905
2023-01-02T06:15:35.447Z,9.456666
2023-01-02T06:16:35.465Z,9.457025
2023-01-02T06:17:35.409Z,9.457050
2023-01-02T06:18:35.409Z,9.457194
2023-01-02T06:19:35.413Z,9.457079
2023-01-02T06:20:35.392Z,9.457077
2023-01-02T06:21:35.399Z,9.456994
2023-01-02T06:22:35.365Z,9.456983
2023-01-02T06:23:35.354Z,9.457161
2023-01-02T06:24:35.379Z,9.457211
2023-01-02T06:25:35.329Z,9.457295
2023-01-02T06:26:35.659Z,9.457141
2023-01-02T06:27:35.310Z,9.457159
2023-01-02T06:28:35.295Z,9.457096
2023-01-02T06:29:35.312Z,9.457066
2023-01-02T06:30:35.277Z,9.456964
2023-01-02T06:31:38.981Z,9.457066
2023-01-02T06:32:35.256Z,9.457131
2023-01-02T06:33:35.295Z,9.457172
2023-01-02T06:34:35.257Z,9.457150
2023-01-02T06:35:35.229Z,9.457094
2023-01-02T06:36:35.225Z,9.457261
2023-01-02T06:37:35.200Z,9.457193
2023-01-02T06:38:35.202Z,9.457242
2023-01-02T06:39:35.206Z,9.457204
2023-01-02T06:40:35.188Z,9.457232
2023-01-02T06:41:35.158Z,9.457243
2023-01-02T06:42:35.161Z,9.457197
2023-01-02T06:43:35.147Z,9.456989
2023-01-02T06:44:37.226Z,9.457074
2023-01-02T06:45:35.164Z,9.457119
2023-01-02T06:46:35.112Z,9.457146
2023-01-02T06:47:35.102Z,9.457137
2023-01-02T06:48:35.093Z,9.457157
2023-01-02T06:49:35.102Z,9.457070
2023-01-02T06:50:35.391Z,9.457093
2023-01-02T06:51:36.062Z,9.457232
2023-01-02T06:52:35.048Z,9.457149
2023-01-02T06:53:35.045Z,9.457225
2023-01-02T06:54:35.068Z,9.457290
2023-01-02T06:55:35.015Z,9.457240
2023-01-02T06:56:35.005Z,9.457164
2023-01-02T06:57:35.002Z,9.457339
2023-01-02T06:58:35.041Z,9.456980
2023-01-02T06:59:35.036Z,9.456742
2023-01-02T07:00:35.086Z,9.457130
2023-01-02T07:01:35.171Z,9.457026
2023-01-02T07:02:35.067Z,9.457087
2023-01-02T07:03:34.951Z,9.457129
2023-01-02T07:04:34.985Z,9.457202
2023-01-02T07:05:34.923Z,9.457232
2023-01-02T07:06:34.924Z,9.457222
2023-01-02T07:07:34.936Z,9.457211
2023-01-02T07:08:34.944Z,9.457130
2023-01-02T07:09:34.936Z,9.457086
2023-01-02T07:10:34.873Z,9.457179
2023-01-02T07:11:34.859Z,9.457108
2023-01-02T07:12:35.850Z,9.457201
2023-01-02T07:13:34.845Z,9.457222
2023-01-02T07:14:34.863Z,9.457225
2023-01-02T07:15:34.835Z,9.457226
2023-01-02T07:16:34.835Z,9.457147
2023-01-02T07:17:34.823Z,9.457128
2023-01-02T07:18:34.793Z,9.457143
2023-01-02T07:19:34.797Z,9.457150
2023-01-02T07:20:34.765Z,9.457091
2023-01-02T07:21:34.755Z,9.457100
2023-01-02T07:22:34.762Z,9.457129
2023-01-02T07:23:34.735Z,9.457096
2023-01-02T07:24:34.748Z,9.457047
2023-01-02T07:25:37.093Z,9.457051
2023-01-02T07:26:35.707Z,9.457138
2023-01-02T07:27:34.700Z,9.457243
2023-01-02T07:28:34.678Z,9.457135
2023-01-02T07:29:34.695Z,9.457167
2023-01-02T07:30:34.672Z,9.457381
2023-01-02T07:31:34.679Z,9.457253
2023-01-02T07:32:34.641Z,9.457204
2023-01-02T07:33:34.641Z,9.457200
2023-01-02T07:34:34.660Z,9.457226
2023-01-02T07:35:34.625Z,9.457157
2023-01-02T07:36:34.616Z,9.457185
2023-01-02T07:37:34.714Z,9.457120
2023-01-02T07:38:34.592Z,9.457172
2023-01-02T07:39:34.606Z,9.457080
2023-01-02T07:40:34.566Z,9.457208
2023-01-02T07:41:34.553Z,9.457273
2023-01-02T07:42:34.549Z,9.457232
2023-01-02T07:43:34.532Z,9.457267
2023-01-02T07:44:34.527Z,9.457354
2023-01-02T07:45:34.581Z,9.457374
2023-01-02T07:46:34.534Z,9.457404
2023-01-02T07:47:34.504Z,9.457251
2023-01-02T07:48:34.486Z,9.457204
2023-01-02T07:49:34.500Z,9.457051
2023-01-02T07:50:34.488Z,9.457202
2023-01-02T07:51:34.461Z,9.457110
2023-01-02T07:52:34.449Z,9.457141
2023-01-02T07:53:34.424Z,9.457028
2023-01-02T07:54:35.420Z,9.456948
2023-01-02T07:55:34.488Z,9.457035
2023-01-02T07:56:34.409Z,9.456865
2023-01-02T07:57:34.393Z,9.456985
2023-01-02T07:58:34.383Z,9.457211
2023-01-02T07:59:34.366Z,9.457129
2023-01-02T08:00:35.406Z,9.457320
2023-01-02T08:01:34.477Z,9.457006
2023-01-02T08:02:34.466Z,9.457190
2023-01-02T08:03:34.336Z,9.457067
2023-01-02T08:04:34.373Z,9.457187
2023-01-02T08:05:34.359Z,9.457178
2023-01-02T08:06:34.312Z,9.457163
2023-01-02T08:07:38.092Z,9.457102
2023-01-02T08:08:35.278Z,9.457170
2023-01-02T08:09:34.261Z,9.457242
2023-01-02T08:10:34.282Z,9.457090
2023-01-02T08:11:34.244Z,9.457135
2023-01-02T08:12:34.281Z,9.457235
2023-01-02T08:13:34.230Z,9.457220
2023-01-02T08:14:34.230Z,9.457161
2023-01-02T08:15:34.247Z,9.457118
2023-01-02T08:16:34.283Z,9.457199
2023-01-02T08:17:34.183Z,9.457314
2023-01-02T08:18:34.174Z,9.457343
2023-01-02T08:19:34.172Z,9.457176
2023-01-02T08:20:34.168Z,9.457276
2023-01-02T08:21:34.144Z,9.457304
2023-01-02T08:22:34.138Z,9.457213
2023-01-02T08:23:34.125Z,9.457277
2023-01-02T08:24:34.116Z,9.457223
2023-01-02T08:25:34.211Z,9.457264
2023-01-02T08:26:34.096Z,9.457351
2023-01-02T08:27:34.083Z,9.457313
2023-01-02T08:28:34.079Z,9.457312
2023-01-02T08:29:34.055Z,9.457281
2023-01-02T08:30:34.120Z,9.457430
2023-01-02T08:31:35.802Z,9.457290
2023-01-02T08:32:34.031Z,9.457191
2023-01-02T08:33:34.021Z,9.457314
2023-01-02T08:34:34.017Z,9.457281
2023-01-02T08:35:38.398Z,9.457307
2023-01-02T08:36:35.991Z,9.457349
2023-01-02T08:37:33.978Z,9.457460
2023-01-02T08:38:33.972Z,9.457394
2023-01-02T08:39:33.960Z,9.457258
2023-01-02T08:40:33.969Z,9.457188
2023-01-02T08:41:33.942Z,9.457337
2023-01-02T08:42:33.935Z,9.457297
2023-01-02T08:43:33.921Z,9.457308
2023-01-02T08:44:33.914Z,9.457244
2023-01-02T08:45:33.914Z,9.457314
2023-01-02T08:46:38.564Z,9.457284
2023-01-02T08:47:35.877Z,9.457220
2023-01-02T08:48:33.859Z,9.457219
2023-01-02T08:49:33.856Z,9.457275
2023-01-02T08:50:33.867Z,9.457285
2023-01-02T08:51:33.831Z,9.457298
2023-01-02T08:52:33.835Z,9.457260
2023-01-02T08:53:33.817Z,9.457352
2023-01-02T08:54:33.806Z,9.457270
2023-01-02T08:55:33.810Z,9.457212
2023-01-02T08:56:33.781Z,9.457257
2023-01-02T08:57:33.773Z,9.457286
2023-01-02T08:58:33.764Z,9.457270
2023-01-02T08:59:33.753Z,9.457312
2023-01-02T09:00:33.752Z,9.457224
2023-01-02T09:01:33.874Z,9.457221
2023-01-02T09:02:33.907Z,9.457188
2023-01-02T09:03:33.765Z,9.457218
2023-01-02T09:04:33.703Z,9.457253
2023-01-02T09:05:33.736Z,9.457291
2023-01-02T09:06:33.711Z,9.457263
2023-01-02T09:07:33.668Z,9.457233
2023-01-02T09:08:33.657Z,9.457325
2023-01-02T09:09:33.657Z,9.457384
2023-01-02T09:10:33.676Z,9.457280
2023-01-02T09:11:33.630Z,9.457154
2023-01-02T09:12:33.635Z,9.457191
2023-01-02T09:13:33.616Z,9.457425
2023-01-02T09:14:33.610Z,9.457423
2023-01-02T09:15:33.680Z,9.457328
2023-01-02T09:16:33.584Z,9.457337
2023-01-02T09:17:33.571Z,9.457316
2023-01-02T09:18:33.562Z,9.457323
2023-01-02T09:19:33.548Z,9.457278
2023-01-02T09:20:33.562Z,9.457307
2023-01-02T09:21:33.529Z,9.457350
2023-01-02T09:22:33.523Z,9.457376
2023-01-02T09:23:33.511Z,9.457417
2023-01-02T09:24:33.499Z,9.457482
2023-01-02T09:25:33.506Z,9.457576
2023-01-02T09:26:33.494Z,9.457420
2023-01-02T09:27:33.472Z,9.457191
2023-01-02T09:28:33.461Z,9.457319
2023-01-02T09:29:33.446Z,9.457298
2023-01-02T09:30:33.465Z,9.457419
2023-01-02T09:31:33.482Z,9.457410
2023-01-02T09:32:33.410Z,9.457257
2023-01-02T09:33:33.408Z,9.457216
2023-01-02T09:34:33.401Z,9.457191
2023-01-02T09:35:33.413Z,9.457242
2023-01-02T09:36:33.370Z,9.457329
2023-01-02T09:37:33.369Z,9.457222
2023-01-02T09:38:33.360Z,9.457219
2023-01-02T09:39:33.356Z,9.457199
2023-01-02T09:40:33.360Z,9.457298
2023-01-02T09:41:33.347Z,9.457329
2023-01-02T09:42:33.324Z,9.457319
2023-01-02T09:43:33.305Z,9.457227
2023-01-02T09:44:33.300Z,9.457241
2023-01-02T09:45:33.287Z,9.457334
2023-01-02T09:46:33.376Z,9.457258
2023-01-02T09:47:33.257Z,9.457264
2023-01-02T09:48:33.252Z,9.457331
2023-01-02T09:49:33.255Z,9.457265
2023-01-02T09:50:33.260Z,9.457380
2023-01-02T09:51:33.240Z,9.457399
2023-01-02T09:52:33.215Z,9.457315
2023-01-02T09:53:33.205Z,9.457271
2023-01-02T09:54:33.204Z,9.457268
2023-01-02T09:55:33.170Z,9.457227
2023-01-02T09:56:34.064Z,9.457302
2023-01-02T09:57:34.166Z,9.457387
2023-01-02T09:58:33.153Z,9.457359
2023-01-02T09:59:33.145Z,9.457317
2023-01-02T10:00:33.128Z,9.457335
2023-01-02T10:01:33.323Z,9.457247
2023-01-02T10:02:33.135Z,9.457241
2023-01-02T10:03:33.175Z,9.457230
2023-01-02T10:04:33.093Z,9.457318
2023-01-02T10:05:33.080Z,9.457527
2023-01-02T10:06:33.077Z,9.457500
2023-01-02T10:07:33.058Z,9.457343
2023-01-02T10:08:33.501Z,9.457226
2023-01-02T10:09:33.045Z,9.457163
2023-01-02T10:10:33.017Z,9.457261
2023-01-02T10:11:33.039Z,9.457292
2023-01-02T10:12:33.015Z,9.457295
2023-01-02T10:14:40.230Z,9.457526
2023-01-02T10:15:33.006Z,9.457525
2023-01-02T10:16:33.000Z,9.457324
2023-01-02T10:17:32.962Z,9.457286
2023-01-02T10:18:32.947Z,9.457343
2023-01-02T10:19:32.951Z,9.457368
2023-01-02T10:20:32.949Z,9.457275
2023-01-02T10:21:32.940Z,9.457312
2023-01-02T10:22:32.911Z,9.457286
2023-01-02T10:23:32.919Z,9.457312
2023-01-02T10:24:32.891Z,9.457398
2023-01-02T10:25:32.905Z,9.457357
2023-01-02T10:26:32.895Z,9.457343
2023-01-02T10:27:32.865Z,9.457333
2023-01-02T10:28:32.854Z,9.457335
2023-01-02T10:29:32.850Z,9.457356
2023-01-02T10:30:32.850Z,9.457313
2023-01-02T10:31:32.850Z,9.457266
2023-01-02T10:32:32.816Z,9.457449
2023-01-02T10:33:32.796Z,9.457275
2023-01-02T10:34:32.797Z,9.457459
2023-01-02T10:35:32.779Z,9.457444
2023-01-02T10:36:32.793Z,9.457464
2023-01-02T10:37:32.762Z,9.457193
2023-01-02T10:38:32.771Z,9.457152
2023-01-02T10:39:32.743Z,9.457151
2023-01-02T10:40:32.746Z,9.457220
2023-01-02T10:41:32.744Z,9.457454
2023-01-02T10:42:32.721Z,9.457269
2023-01-02T10:43:32.693Z,9.457363
2023-01-02T10:44:32.690Z,9.457380
2023-01-02T10:45:32.677Z,9.457264
2023-01-02T10:46:32.722Z,9.457332
2023-01-02T10:47:32.675Z,9.457277
2023-01-02T10:48:32.681Z,9.457152
2023-01-02T10:49:32.717Z,9.457097
2023-01-02T10:50:32.673Z,9.457186
2023-01-02T10:51:32.641Z,9.457554
2023-01-02T10:52:32.602Z,9.457314
2023-01-02T10:53:32.593Z,9.457242
2023-01-02T10:54:32.574Z,9.457236
2023-01-02T10:55:32.597Z,9.457256
2023-01-02T10:56:32.586Z,9.457340
2023-01-02T10:57:32.543Z,9.457294
2023-01-02T10:58:33.537Z,9.457128
2023-01-02T10:59:32.535Z,9.457388
2023-01-02T11:00:32.603Z,9.457217
2023-01-02T11:01:32.671Z,9.457425
2023-01-02T11:02:32.589Z,9.457531
2023-01-02T11:03:32.504Z,9.457413
2023-01-02T11:04:32.483Z,9.457427
2023-01-02T11:05:32.574Z,9.457326
2023-01-02T11:06:39.498Z,9.457363
2023-01-02T11:07:34.453Z,9.457311
2023-01-02T11:08:32.444Z,9.457341
2023-01-02T11:09:32.430Z,9.457341
2023-01-02T11:10:32.423Z,9.457367
2023-01-02T11:11:32.433Z,9.457275
2023-01-02T11:12:32.406Z,9.457402
2023-01-02T11:13:32.396Z,9.457644
2023-01-02T11:14:32.375Z,9.457730
2023-01-02T11:15:32.379Z,9.457616
2023-01-02T11:16:32.418Z,9.457451
2023-01-02T11:17:32.361Z,9.457491
2023-01-02T11:18:32.362Z,9.457426
2023-01-02T11:19:32.333Z,9.457261
2023-01-02T11:20:32.349Z,9.457326
2023-01-02T11:21:32.334Z,9.457265
2023-01-02T11:22:32.310Z,9.457306
2023-01-02T11:23:32.304Z,9.457352
2023-01-02T11:24:32.284Z,9.457267
2023-01-02T11:25:32.273Z,9.457279
2023-01-02T11:26:32.272Z,9.457282
2023-01-02T11:27:32.253Z,9.457258
2023-01-02T11:28:32.244Z,9.457254
2023-01-02T11:29:32.234Z,9.457331
2023-01-02T11:30:32.227Z,9.457263
2023-01-02T11:31:32.284Z,9.457268
2023-01-02T11:32:32.206Z,9.457245
2023-01-02T11:33:32.201Z,9.457241
2023-01-02T11:34:32.172Z,9.457191
2023-01-02T11:35:32.178Z,9.457154
2023-01-02T11:36:32.186Z,9.457192
2023-01-02T11:37:32.166Z,9.457211
2023-01-02T11:38:32.151Z,9.457152
2023-01-02T11:39:32.147Z,9.457228
2023-01-02T11:40:32.124Z,9.457219
2023-01-02T11:41:32.134Z,9.457249
2023-01-02T11:42:32.090Z,9.457252
2023-01-02T11:43:33.091Z,9.457285
2023-01-02T11:44:32.087Z,9.457254
2023-01-02T11:45:32.122Z,9.457232